Anadarko, Oklahoma
Current Conditions -  °F | °C
As of 3:58 AM on Sunday 26 Oct 2014 (Local Time) from KFSI Reporting Station
Clear Clear  
Wind Chill: 17°   Ceiling: Unl
Heat Index: 17°   Visibility: 10mi
Dew Point: 13°   Wind: 5mph
Humidity: 77%   Direction: 180°S
Pressure: 29.95"   Gusts: NA
Location:  35.07°N, 98.24°W
Report Text: KFSI 260858Z AUTO 18004KT 10SM CLR 17/13 A2995 RMK AO2 SLP134 T01740134 57011
Loading
Personal Weather Stations






























Interactive Weather Map
Tropical Storm Tracking
New forecast layout! Learn more

10-Day Weather Forecast

Advertisements
Track Severe Weather on mobile